Terminal Aerodrome Forecast
Issued by NWS

Home | Current Version | Previous Version | Text Only | Print | Product List | Glossary On
Versions: 1 2 3 4 5 6 7 8 9 10 11 12 13 14 15 16
495
FTUS42 KMLB 171730
TAFISM
TAF
KISM 171730Z 1718/1818 VRB06KT P6SM VCTS SCT040CB BKN090
      TEMPO 1719/1722 VRB15G30KT 3SM TSRA BKN030CB
     FM172300 19004KT P6SM FEW035 SCT120 BKN250
     FM181500 19004KT P6SM SCT030=

USA.gov is the U.S. government's official web portal to all federal, state and local government web resources and services.